sensor_id;sensor_type;location;lat;lon;timestamp;P1;durP1;ratioP1;P2;durP2;ratioP2
63114;SDS011;49208;50.874;6.466;2024-01-27T07:02:41;7.10;;;2.33;;
63114;SDS011;49208;50.874;6.466;2024-01-27T07:05:09;9.02;;;2.50;;
63114;SDS011;49208;50.874;6.466;2024-01-27T07:07:35;6.93;;;2.38;;
63114;SDS011;49208;50.874;6.466;2024-01-27T07:10:01;7.93;;;2.63;;
63114;SDS011;49208;50.874;6.466;2024-01-27T07:12:26;9.73;;;2.80;;
63114;SDS011;49208;50.874;6.466;2024-01-27T07:14:52;10.95;;;3.28;;
63114;SDS011;49208;50.874;6.466;2024-01-27T07:17:17;12.63;;;3.22;;
63114;SDS011;49208;50.874;6.466;2024-01-27T07:19:43;9.20;;;2.30;;
63114;SDS011;49208;50.874;6.466;2024-01-27T07:22:08;9.38;;;2.50;;
63114;SDS011;49208;50.874;6.466;2024-01-27T07:24:34;6.65;;;3.03;;
63114;SDS011;49208;50.874;6.466;2024-01-27T07:26:59;13.52;;;2.95;;
63114;SDS011;49208;50.874;6.466;2024-01-27T07:29:25;8.60;;;3.33;;
63114;SDS011;49208;50.874;6.466;2024-01-27T07:31:51;9.50;;;3.30;;
63114;SDS011;49208;50.874;6.466;2024-01-27T07:34:16;10.90;;;3.83;;
63114;SDS011;49208;50.874;6.466;2024-01-27T07:36:42;7.53;;;3.53;;
63114;SDS011;49208;50.874;6.466;2024-01-27T07:39:08;11.07;;;4.15;;
63114;SDS011;49208;50.874;6.466;2024-01-27T07:41:33;10.52;;;4.80;;
63114;SDS011;49208;50.874;6.466;2024-01-27T07:44:09;8.93;;;3.65;;
63114;SDS011;49208;50.874;6.466;2024-01-27T07:46:35;8.73;;;3.70;;
63114;SDS011;49208;50.874;6.466;2024-01-27T07:49:02;8.55;;;3.78;;
63114;SDS011;49208;50.874;6.466;2024-01-27T07:51:30;8.38;;;3.50;;
63114;SDS011;49208;50.874;6.466;2024-01-27T07:53:56;9.50;;;3.65;;
63114;SDS011;49208;50.874;6.466;2024-01-27T07:56:21;10.38;;;3.55;;
63114;SDS011;49208;50.874;6.466;2024-01-27T07:58:46;7.45;;;3.70;;
63114;SDS011;49208;50.874;6.466;2024-01-27T08:01:15;9.63;;;2.75;;
63114;SDS011;49208;50.874;6.466;2024-01-27T08:03:41;8.32;;;3.78;;
63114;SDS011;49208;50.874;6.466;2024-01-27T08:06:10;10.48;;;4.47;;
63114;SDS011;49208;50.874;6.466;2024-01-27T08:08:39;13.48;;;5.30;;
63114;SDS011;49208;50.874;6.466;2024-01-27T08:11:05;15.27;;;5.20;;
63114;SDS011;49208;50.874;6.466;2024-01-27T08:13:30;11.48;;;5.55;;
63114;SDS011;49208;50.874;6.466;2024-01-27T08:15:55;19.52;;;10.20;;
63114;SDS011;49208;50.874;6.466;2024-01-27T08:18:21;23.52;;;10.90;;
63114;SDS011;49208;50.874;6.466;2024-01-27T08:20:46;42.80;;;17.90;;
63114;SDS011;49208;50.874;6.466;2024-01-27T08:23:11;36.17;;;15.10;;
63114;SDS011;49208;50.874;6.466;2024-01-27T08:25:37;33.75;;;17.88;;
63114;SDS011;49208;50.874;6.466;2024-01-27T08:28:04;32.10;;;15.30;;
63114;SDS011;49208;50.874;6.466;2024-01-27T08:30:30;27.65;;;12.65;;
63114;SDS011;49208;50.874;6.466;2024-01-27T08:32:55;15.02;;;7.60;;
63114;SDS011;49208;50.874;6.466;2024-01-27T08:35:20;21.13;;;8.38;;
63114;SDS011;49208;50.874;6.466;2024-01-27T08:37:46;22.25;;;9.90;;
63114;SDS011;49208;50.874;6.466;2024-01-27T08:40:11;22.77;;;10.20;;
63114;SDS011;49208;50.874;6.466;2024-01-27T08:42:38;19.73;;;7.10;;
63114;SDS011;49208;50.874;6.466;2024-01-27T08:45:04;15.35;;;6.88;;
63114;SDS011;49208;50.874;6.466;2024-01-27T08:47:31;19.53;;;7.50;;
63114;SDS011;49208;50.874;6.466;2024-01-27T08:49:56;17.65;;;5.95;;
63114;SDS011;49208;50.874;6.466;2024-01-27T08:52:22;18.70;;;4.55;;
63114;SDS011;49208;50.874;6.466;2024-01-27T08:54:47;11.82;;;5.03;;
63114;SDS011;49208;50.874;6.466;2024-01-27T08:57:13;10.95;;;4.47;;
63114;SDS011;49208;50.874;6.466;2024-01-27T08:59:38;14.18;;;5.18;;
63114;SDS011;49208;50.874;6.466;2024-01-27T09:02:04;11.57;;;5.28;;
63114;SDS011;49208;50.874;6.466;2024-01-27T09:04:30;10.85;;;5.13;;
63114;SDS011;49208;50.874;6.466;2024-01-27T09:06:55;15.38;;;5.15;;
63114;SDS011;49208;50.874;6.466;2024-01-27T09:09:20;10.30;;;4.47;;
63114;SDS011;49208;50.874;6.466;2024-01-27T09:11:46;14.88;;;5.57;;
63114;SDS011;49208;50.874;6.466;2024-01-27T09:14:11;13.05;;;4.80;;
63114;SDS011;49208;50.874;6.466;2024-01-27T09:16:37;13.15;;;5.43;;
63114;SDS011;49208;50.874;6.466;2024-01-27T09:19:03;12.38;;;5.22;;
63114;SDS011;49208;50.874;6.466;2024-01-27T09:21:28;12.20;;;5.38;;
63114;SDS011;49208;50.874;6.466;2024-01-27T09:23:55;11.93;;;5.17;;
63114;SDS011;49208;50.874;6.466;2024-01-27T09:26:21;11.48;;;5.53;;
63114;SDS011;49208;50.874;6.466;2024-01-27T09:28:48;14.75;;;4.95;;
63114;SDS011;49208;50.874;6.466;2024-01-27T09:31:19;12.82;;;6.75;;
63114;SDS011;49208;50.874;6.466;2024-01-27T09:33:46;12.85;;;4.90;;
63114;SDS011;49208;50.874;6.466;2024-01-27T09:36:13;13.68;;;4.20;;
63114;SDS011;49208;50.874;6.466;2024-01-27T09:38:38;12.38;;;3.95;;
63114;SDS011;49208;50.874;6.466;2024-01-27T09:41:03;9.13;;;3.40;;
63114;SDS011;49208;50.874;6.466;2024-01-27T09:43:29;15.20;;;3.80;;
63114;SDS011;49208;50.874;6.466;2024-01-27T09:45:55;12.80;;;4.68;;
63114;SDS011;49208;50.874;6.466;2024-01-27T09:48:21;12.20;;;4.65;;
63114;SDS011;49208;50.874;6.466;2024-01-27T09:50:46;10.70;;;3.88;;
63114;SDS011;49208;50.874;6.466;2024-01-27T09:53:14;9.20;;;3.10;;
63114;SDS011;49208;50.874;6.466;2024-01-27T09:55:40;11.93;;;3.88;;
63114;SDS011;49208;50.874;6.466;2024-01-27T09:58:05;12.55;;;3.85;;
63114;SDS011;49208;50.874;6.466;2024-01-27T10:00:31;7.55;;;2.80;;
63114;SDS011;49208;50.874;6.466;2024-01-27T10:03:00;9.73;;;3.08;;
63114;SDS011;49208;50.874;6.466;2024-01-27T10:07:53;7.82;;;3.15;;
63114;SDS011;49208;50.874;6.466;2024-01-27T10:10:19;8.50;;;2.58;;
63114;SDS011;49208;50.874;6.466;2024-01-27T10:12:44;8.88;;;3.70;;
63114;SDS011;49208;50.874;6.466;2024-01-27T10:15:22;12.50;;;4.25;;
63114;SDS011;49208;50.874;6.466;2024-01-27T10:17:48;9.00;;;3.15;;
63114;SDS011;49208;50.874;6.466;2024-01-27T10:20:13;13.98;;;3.95;;
63114;SDS011;49208;50.874;6.466;2024-01-27T10:22:41;15.93;;;3.83;;
63114;SDS011;49208;50.874;6.466;2024-01-27T10:25:09;12.60;;;3.20;;
63114;SDS011;49208;50.874;6.466;2024-01-27T10:27:35;11.43;;;3.72;;
63114;SDS011;49208;50.874;6.466;2024-01-27T10:30:00;7.38;;;3.30;;
63114;SDS011;49208;50.874;6.466;2024-01-27T10:32:27;9.98;;;3.95;;
63114;SDS011;49208;50.874;6.466;2024-01-27T10:35:02;12.95;;;3.60;;
63114;SDS011;49208;50.874;6.466;2024-01-27T10:37:28;12.55;;;3.33;;
63114;SDS011;49208;50.874;6.466;2024-01-27T10:42:29;10.10;;;3.53;;
63114;SDS011;49208;50.874;6.466;2024-01-27T10:44:57;14.23;;;3.58;;
63114;SDS011;49208;50.874;6.466;2024-01-27T10:47:25;9.30;;;3.28;;
63114;SDS011;49208;50.874;6.466;2024-01-27T10:49:53;8.85;;;2.40;;
63114;SDS011;49208;50.874;6.466;2024-01-27T10:52:21;14.00;;;3.30;;
63114;SDS011;49208;50.874;6.466;2024-01-27T10:54:53;8.70;;;2.58;;
63114;SDS011;49208;50.874;6.466;2024-01-27T10:57:23;8.73;;;3.33;;
63114;SDS011;49208;50.874;6.466;2024-01-27T10:59:50;12.90;;;3.65;;
63114;SDS011;49208;50.874;6.466;2024-01-27T11:02:18;9.88;;;3.25;;
63114;SDS011;49208;50.874;6.466;2024-01-27T11:04:45;8.35;;;3.15;;
63114;SDS011;49208;50.874;6.466;2024-01-27T11:07:13;11.73;;;3.13;;
63114;SDS011;49208;50.874;6.466;2024-01-27T11:09:38;11.05;;;3.58;;
63114;SDS011;49208;50.874;6.466;2024-01-27T11:12:04;12.13;;;3.05;;
63114;SDS011;49208;50.874;6.466;2024-01-27T11:14:31;10.40;;;2.90;;
63114;SDS011;49208;50.874;6.466;2024-01-27T11:16:58;13.10;;;2.92;;
63114;SDS011;49208;50.874;6.466;2024-01-27T11:19:24;12.82;;;3.78;;
63114;SDS011;49208;50.874;6.466;2024-01-27T11:22:02;8.20;;;2.50;;
63114;SDS011;49208;50.874;6.466;2024-01-27T11:24:28;10.05;;;2.58;;
63114;SDS011;49208;50.874;6.466;2024-01-27T11:27:03;8.13;;;1.95;;
63114;SDS011;49208;50.874;6.466;2024-01-27T11:29:30;6.88;;;2.10;;
63114;SDS011;49208;50.874;6.466;2024-01-27T11:32:00;7.07;;;1.67;;
63114;SDS011;49208;50.874;6.466;2024-01-27T11:34:42;8.45;;;2.22;;
63114;SDS011;49208;50.874;6.466;2024-01-27T11:37:10;8.18;;;2.60;;
63114;SDS011;49208;50.874;6.466;2024-01-27T11:39:39;7.47;;;1.88;;
63114;SDS011;49208;50.874;6.466;2024-01-27T11:42:05;9.43;;;2.10;;
63114;SDS011;49208;50.874;6.466;2024-01-27T11:44:37;8.25;;;2.10;;
63114;SDS011;49208;50.874;6.466;2024-01-27T11:47:03;8.27;;;2.08;;
63114;SDS011;49208;50.874;6.466;2024-01-27T11:49:29;6.53;;;1.90;;
63114;SDS011;49208;50.874;6.466;2024-01-27T11:51:55;9.43;;;1.90;;
63114;SDS011;49208;50.874;6.466;2024-01-27T11:54:20;6.13;;;1.60;;
63114;SDS011;49208;50.874;6.466;2024-01-27T11:56:46;6.65;;;1.70;;
63114;SDS011;49208;50.874;6.466;2024-01-27T11:59:11;4.07;;;1.20;;
63114;SDS011;49208;50.874;6.466;2024-01-27T12:01:37;8.80;;;1.60;;
63114;SDS011;49208;50.874;6.466;2024-01-27T12:04:06;10.25;;;1.85;;
63114;SDS011;49208;50.874;6.466;2024-01-27T12:06:32;7.25;;;1.65;;
63114;SDS011;49208;50.874;6.466;2024-01-27T12:08:58;6.80;;;1.85;;
63114;SDS011;49208;50.874;6.466;2024-01-27T12:11:24;9.75;;;1.98;;
63114;SDS011;49208;50.874;6.466;2024-01-27T12:13:49;6.65;;;2.10;;
63114;SDS011;49208;50.874;6.466;2024-01-27T12:16:15;7.50;;;1.73;;
63114;SDS011;49208;50.874;6.466;2024-01-27T12:18:41;5.43;;;2.15;;
63114;SDS011;49208;50.874;6.466;2024-01-27T12:21:07;11.70;;;2.83;;
63114;SDS011;49208;50.874;6.466;2024-01-27T12:23:34;4.80;;;1.93;;
63114;SDS011;49208;50.874;6.466;2024-01-27T12:25:59;9.20;;;1.98;;
63114;SDS011;49208;50.874;6.466;2024-01-27T12:28:25;11.88;;;2.28;;
63114;SDS011;49208;50.874;6.466;2024-01-27T12:30:51;7.97;;;2.97;;
63114;SDS011;49208;50.874;6.466;2024-01-27T12:33:17;6.68;;;2.03;;
63114;SDS011;49208;50.874;6.466;2024-01-27T12:35:47;12.13;;;1.73;;
63114;SDS011;49208;50.874;6.466;2024-01-27T12:38:13;7.05;;;1.70;;
63114;SDS011;49208;50.874;6.466;2024-01-27T12:40:38;6.70;;;1.80;;
63114;SDS011;49208;50.874;6.466;2024-01-27T12:43:04;5.75;;;1.60;;
63114;SDS011;49208;50.874;6.466;2024-01-27T12:45:29;11.68;;;2.33;;
63114;SDS011;49208;50.874;6.466;2024-01-27T12:47:55;7.82;;;2.13;;
63114;SDS011;49208;50.874;6.466;2024-01-27T12:50:20;5.68;;;1.70;;
63114;SDS011;49208;50.874;6.466;2024-01-27T12:52:46;7.10;;;1.77;;
63114;SDS011;49208;50.874;6.466;2024-01-27T12:55:12;8.75;;;2.88;;
63114;SDS011;49208;50.874;6.466;2024-01-27T12:57:37;7.22;;;1.70;;
63114;SDS011;49208;50.874;6.466;2024-01-27T13:00:04;8.45;;;1.75;;
63114;SDS011;49208;50.874;6.466;2024-01-27T13:02:35;7.18;;;1.55;;
63114;SDS011;49208;50.874;6.466;2024-01-27T13:05:01;5.28;;;1.88;;
63114;SDS011;49208;50.874;6.466;2024-01-27T13:07:26;7.60;;;1.80;;
63114;SDS011;49208;50.874;6.466;2024-01-27T13:09:51;7.03;;;2.20;;
63114;SDS011;49208;50.874;6.466;2024-01-27T13:12:17;7.03;;;2.50;;
63114;SDS011;49208;50.874;6.466;2024-01-27T13:14:42;6.30;;;1.95;;
63114;SDS011;49208;50.874;6.466;2024-01-27T13:17:07;5.22;;;1.65;;
63114;SDS011;49208;50.874;6.466;2024-01-27T13:19:33;8.30;;;2.42;;
63114;SDS011;49208;50.874;6.466;2024-01-27T13:21:58;6.70;;;1.63;;
63114;SDS011;49208;50.874;6.466;2024-01-27T13:24:24;10.98;;;1.98;;
63114;SDS011;49208;50.874;6.466;2024-01-27T13:26:50;7.80;;;2.50;;
63114;SDS011;49208;50.874;6.466;2024-01-27T13:29:16;4.78;;;1.50;;
63114;SDS011;49208;50.874;6.466;2024-01-27T13:31:42;6.60;;;2.13;;
63114;SDS011;49208;50.874;6.466;2024-01-27T13:34:07;6.55;;;1.70;;
63114;SDS011;49208;50.874;6.466;2024-01-27T13:36:33;10.68;;;2.28;;
63114;SDS011;49208;50.874;6.466;2024-01-27T13:38:59;5.82;;;2.00;;
63114;SDS011;49208;50.874;6.466;2024-01-27T13:41:25;2.95;;;1.23;;
63114;SDS011;49208;50.874;6.466;2024-01-27T13:43:50;7.68;;;2.10;;
63114;SDS011;49208;50.874;6.466;2024-01-27T13:46:15;7.30;;;2.28;;
63114;SDS011;49208;50.874;6.466;2024-01-27T13:48:41;5.10;;;1.70;;
63114;SDS011;49208;50.874;6.466;2024-01-27T13:51:06;7.05;;;1.80;;
63114;SDS011;49208;50.874;6.466;2024-01-27T13:53:32;6.28;;;1.70;;
63114;SDS011;49208;50.874;6.466;2024-01-27T13:55:58;4.93;;;1.73;;
63114;SDS011;49208;50.874;6.466;2024-01-27T13:58:25;10.32;;;1.95;;
63114;SDS011;49208;50.874;6.466;2024-01-27T14:00:51;5.13;;;1.85;;
63114;SDS011;49208;50.874;6.466;2024-01-27T14:03:16;5.93;;;1.92;;
63114;SDS011;49208;50.874;6.466;2024-01-27T14:05:42;7.43;;;1.58;;
63114;SDS011;49208;50.874;6.466;2024-01-27T14:08:08;6.43;;;1.60;;
63114;SDS011;49208;50.874;6.466;2024-01-27T14:10:35;8.85;;;1.98;;
63114;SDS011;49208;50.874;6.466;2024-01-27T14:13:01;4.97;;;1.55;;
63114;SDS011;49208;50.874;6.466;2024-01-27T14:15:29;5.78;;;1.60;;
63114;SDS011;49208;50.874;6.466;2024-01-27T14:17:55;7.35;;;1.90;;
63114;SDS011;49208;50.874;6.466;2024-01-27T14:20:20;5.20;;;1.70;;
63114;SDS011;49208;50.874;6.466;2024-01-27T14:22:46;6.07;;;2.08;;
63114;SDS011;49208;50.874;6.466;2024-01-27T14:25:11;4.95;;;1.75;;
63114;SDS011;49208;50.874;6.466;2024-01-27T14:27:37;6.57;;;1.65;;
63114;SDS011;49208;50.874;6.466;2024-01-27T14:30:03;6.90;;;1.67;;
63114;SDS011;49208;50.874;6.466;2024-01-27T14:32:28;5.82;;;1.75;;
63114;SDS011;49208;50.874;6.466;2024-01-27T14:34:53;6.00;;;1.65;;
63114;SDS011;49208;50.874;6.466;2024-01-27T14:37:19;5.32;;;1.73;;
63114;SDS011;49208;50.874;6.466;2024-01-27T14:39:44;8.48;;;1.90;;
63114;SDS011;49208;50.874;6.466;2024-01-27T14:42:13;5.93;;;1.75;;
63114;SDS011;49208;50.874;6.466;2024-01-27T14:44:39;14.50;;;2.75;;
63114;SDS011;49208;50.874;6.466;2024-01-27T14:47:05;9.30;;;2.40;;
63114;SDS011;49208;50.874;6.466;2024-01-27T14:51:58;6.45;;;2.40;;
63114;SDS011;49208;50.874;6.466;2024-01-27T14:54:23;9.18;;;2.05;;
63114;SDS011;49208;50.874;6.466;2024-01-27T14:56:49;9.43;;;2.28;;
63114;SDS011;49208;50.874;6.466;2024-01-27T14:59:14;10.32;;;2.30;;
63114;SDS011;49208;50.874;6.466;2024-01-27T15:01:39;7.90;;;2.17;;
63114;SDS011;49208;50.874;6.466;2024-01-27T15:04:05;6.28;;;1.90;;
63114;SDS011;49208;50.874;6.466;2024-01-27T15:06:30;9.70;;;2.55;;
63114;SDS011;49208;50.874;6.466;2024-01-27T15:08:56;7.18;;;1.73;;
63114;SDS011;49208;50.874;6.466;2024-01-27T15:11:22;10.80;;;2.15;;
63114;SDS011;49208;50.874;6.466;2024-01-27T15:13:47;8.45;;;1.83;;
63114;SDS011;49208;50.874;6.466;2024-01-27T15:16:12;8.13;;;2.83;;
63114;SDS011;49208;50.874;6.466;2024-01-27T15:18:38;8.90;;;2.33;;
63114;SDS011;49208;50.874;6.466;2024-01-27T15:21:08;9.25;;;2.35;;
63114;SDS011;49208;50.874;6.466;2024-01-27T15:23:33;6.85;;;1.95;;
63114;SDS011;49208;50.874;6.466;2024-01-27T15:26:00;11.23;;;3.40;;
63114;SDS011;49208;50.874;6.466;2024-01-27T15:28:31;5.30;;;1.65;;
63114;SDS011;49208;50.874;6.466;2024-01-27T15:30:56;8.50;;;2.28;;
63114;SDS011;49208;50.874;6.466;2024-01-27T15:33:22;7.53;;;2.10;;
63114;SDS011;49208;50.874;6.466;2024-01-27T15:35:47;5.68;;;2.10;;
63114;SDS011;49208;50.874;6.466;2024-01-27T15:38:13;8.32;;;2.03;;
63114;SDS011;49208;50.874;6.466;2024-01-27T15:40:38;8.23;;;2.08;;
63114;SDS011;49208;50.874;6.466;2024-01-27T15:43:03;8.85;;;1.95;;
63114;SDS011;49208;50.874;6.466;2024-01-27T15:45:29;22.50;;;3.28;;
63114;SDS011;49208;50.874;6.466;2024-01-27T15:47:56;12.50;;;2.47;;
63114;SDS011;49208;50.874;6.466;2024-01-27T15:50:24;9.90;;;2.20;;
63114;SDS011;49208;50.874;6.466;2024-01-27T15:52:53;10.65;;;2.42;;
63114;SDS011;49208;50.874;6.466;2024-01-27T15:55:22;12.15;;;3.10;;
63114;SDS011;49208;50.874;6.466;2024-01-27T15:57:48;8.30;;;2.95;;
63114;SDS011;49208;50.874;6.466;2024-01-27T16:00:13;14.35;;;3.22;;
63114;SDS011;49208;50.874;6.466;2024-01-27T16:02:40;8.98;;;2.75;;
63114;SDS011;49208;50.874;6.466;2024-01-27T16:05:06;10.43;;;2.53;;
63114;SDS011;49208;50.874;6.466;2024-01-27T16:07:32;10.13;;;2.38;;
63114;SDS011;49208;50.874;6.466;2024-01-27T16:09:57;9.77;;;2.55;;
63114;SDS011;49208;50.874;6.466;2024-01-27T16:12:27;15.65;;;2.90;;
63114;SDS011;49208;50.874;6.466;2024-01-27T16:14:53;13.23;;;2.65;;
63114;SDS011;49208;50.874;6.466;2024-01-27T16:17:18;10.23;;;3.05;;
63114;SDS011;49208;50.874;6.466;2024-01-27T16:19:44;8.75;;;3.10;;
63114;SDS011;49208;50.874;6.466;2024-01-27T16:22:09;8.68;;;2.53;;
63114;SDS011;49208;50.874;6.466;2024-01-27T16:24:34;8.80;;;2.65;;
63114;SDS011;49208;50.874;6.466;2024-01-27T16:27:00;12.68;;;2.60;;
63114;SDS011;49208;50.874;6.466;2024-01-27T16:29:25;7.20;;;2.08;;
63114;SDS011;49208;50.874;6.466;2024-01-27T16:31:51;9.57;;;2.83;;
63114;SDS011;49208;50.874;6.466;2024-01-27T16:34:16;14.48;;;3.72;;
63114;SDS011;49208;50.874;6.466;2024-01-27T16:36:42;8.25;;;2.92;;
63114;SDS011;49208;50.874;6.466;2024-01-27T16:39:07;12.18;;;2.90;;
63114;SDS011;49208;50.874;6.466;2024-01-27T16:44:00;7.53;;;1.88;;
63114;SDS011;49208;50.874;6.466;2024-01-27T16:46:26;11.05;;;2.38;;
63114;SDS011;49208;50.874;6.466;2024-01-27T16:48:51;7.95;;;3.05;;
63114;SDS011;49208;50.874;6.466;2024-01-27T16:51:17;5.97;;;2.55;;
63114;SDS011;49208;50.874;6.466;2024-01-27T16:53:42;9.85;;;2.58;;
63114;SDS011;49208;50.874;6.466;2024-01-27T16:56:08;7.32;;;2.55;;
63114;SDS011;49208;50.874;6.466;2024-01-27T16:58:34;6.30;;;2.22;;
63114;SDS011;49208;50.874;6.466;2024-01-27T17:00:59;7.15;;;2.53;;
63114;SDS011;49208;50.874;6.466;2024-01-27T17:03:24;9.20;;;2.15;;
63114;SDS011;49208;50.874;6.466;2024-01-27T17:05:50;7.57;;;2.25;;
63114;SDS011;49208;50.874;6.466;2024-01-27T17:08:15;6.93;;;2.40;;
63114;SDS011;49208;50.874;6.466;2024-01-27T17:10:41;8.98;;;2.58;;
63114;SDS011;49208;50.874;6.466;2024-01-27T17:13:06;9.02;;;2.75;;
63114;SDS011;49208;50.874;6.466;2024-01-27T17:15:31;7.13;;;2.15;;
63114;SDS011;49208;50.874;6.466;2024-01-27T17:17:58;10.43;;;2.85;;
63114;SDS011;49208;50.874;6.466;2024-01-27T17:20:24;7.47;;;2.88;;
63114;SDS011;49208;50.874;6.466;2024-01-27T17:22:50;13.20;;;2.70;;
63114;SDS011;49208;50.874;6.466;2024-01-27T17:25:16;10.52;;;2.83;;
63114;SDS011;49208;50.874;6.466;2024-01-27T17:27:42;7.72;;;2.28;;
63114;SDS011;49208;50.874;6.466;2024-01-27T17:30:07;6.63;;;2.20;;
63114;SDS011;49208;50.874;6.466;2024-01-27T17:32:34;9.18;;;2.10;;
63114;SDS011;49208;50.874;6.466;2024-01-27T17:35:01;5.13;;;2.08;;
63114;SDS011;49208;50.874;6.466;2024-01-27T17:37:27;9.60;;;2.35;;
63114;SDS011;49208;50.874;6.466;2024-01-27T17:39:52;11.82;;;2.05;;
63114;SDS011;49208;50.874;6.466;2024-01-27T17:42:18;9.25;;;2.00;;
63114;SDS011;49208;50.874;6.466;2024-01-27T17:44:43;10.60;;;2.70;;
63114;SDS011;49208;50.874;6.466;2024-01-27T17:47:09;10.43;;;2.63;;
63114;SDS011;49208;50.874;6.466;2024-01-27T17:49:34;6.38;;;2.33;;
63114;SDS011;49208;50.874;6.466;2024-01-27T17:51:59;4.28;;;2.05;;
63114;SDS011;49208;50.874;6.466;2024-01-27T17:54:25;12.02;;;2.10;;
63114;SDS011;49208;50.874;6.466;2024-01-27T17:56:52;13.48;;;2.92;;
63114;SDS011;49208;50.874;6.466;2024-01-27T17:59:20;7.60;;;2.05;;
63114;SDS011;49208;50.874;6.466;2024-01-27T18:01:48;4.43;;;2.17;;
63114;SDS011;49208;50.874;6.466;2024-01-27T18:04:14;8.13;;;3.42;;
63114;SDS011;49208;50.874;6.466;2024-01-27T18:06:40;11.63;;;3.10;;
63114;SDS011;49208;50.874;6.466;2024-01-27T18:09:05;15.07;;;3.70;;
63114;SDS011;49208;50.874;6.466;2024-01-27T18:11:31;8.77;;;3.65;;
63114;SDS011;49208;50.874;6.466;2024-01-27T18:13:56;9.45;;;3.30;;
63114;SDS011;49208;50.874;6.466;2024-01-27T18:16:22;9.60;;;3.05;;
63114;SDS011;49208;50.874;6.466;2024-01-27T18:18:50;6.57;;;3.78;;
63114;SDS011;49208;50.874;6.466;2024-01-27T18:21:15;9.70;;;3.35;;
63114;SDS011;49208;50.874;6.466;2024-01-27T18:23:41;8.70;;;4.05;;
63114;SDS011;49208;50.874;6.466;2024-01-27T18:26:06;12.43;;;4.10;;
63114;SDS011;49208;50.874;6.466;2024-01-27T18:28:31;12.43;;;4.63;;
63114;SDS011;49208;50.874;6.466;2024-01-27T18:30:57;9.07;;;4.40;;
63114;SDS011;49208;50.874;6.466;2024-01-27T18:33:22;10.80;;;4.18;;
63114;SDS011;49208;50.874;6.466;2024-01-27T18:35:49;11.38;;;5.07;;
63114;SDS011;49208;50.874;6.466;2024-01-27T18:38:15;10.85;;;4.82;;
63114;SDS011;49208;50.874;6.466;2024-01-27T18:40:40;11.02;;;5.72;;
63114;SDS011;49208;50.874;6.466;2024-01-27T18:43:06;13.07;;;5.28;;
63114;SDS011;49208;50.874;6.466;2024-01-27T18:45:32;14.32;;;5.28;;
63114;SDS011;49208;50.874;6.466;2024-01-27T18:47:57;14.10;;;6.22;;
63114;SDS011;49208;50.874;6.466;2024-01-27T18:50:25;19.70;;;6.85;;
63114;SDS011;49208;50.874;6.466;2024-01-27T18:52:51;11.10;;;5.57;;
63114;SDS011;49208;50.874;6.466;2024-01-27T18:55:18;15.77;;;6.30;;
63114;SDS011;49208;50.874;6.466;2024-01-27T18:57:44;11.63;;;5.43;;
63114;SDS011;49208;50.874;6.466;2024-01-27T19:00:10;8.27;;;4.53;;
63114;SDS011;49208;50.874;6.466;2024-01-27T19:02:36;9.77;;;4.65;;
63114;SDS011;49208;50.874;6.466;2024-01-27T19:05:01;16.17;;;5.05;;
63114;SDS011;49208;50.874;6.466;2024-01-27T19:07:31;14.70;;;5.47;;
63114;SDS011;49208;50.874;6.466;2024-01-27T19:09:56;15.25;;;5.43;;
63114;SDS011;49208;50.874;6.466;2024-01-27T19:12:21;12.63;;;5.13;;
63114;SDS011;49208;50.874;6.466;2024-01-27T19:14:47;10.10;;;4.90;;
63114;SDS011;49208;50.874;6.466;2024-01-27T19:17:12;10.88;;;4.05;;
63114;SDS011;49208;50.874;6.466;2024-01-27T19:19:37;17.05;;;4.70;;
63114;SDS011;49208;50.874;6.466;2024-01-27T19:22:03;12.15;;;4.55;;
63114;SDS011;49208;50.874;6.466;2024-01-27T19:24:28;8.88;;;4.40;;
63114;SDS011;49208;50.874;6.466;2024-01-27T19:26:54;10.77;;;4.28;;
63114;SDS011;49208;50.874;6.466;2024-01-27T19:29:19;11.68;;;4.05;;
63114;SDS011;49208;50.874;6.466;2024-01-27T19:31:45;13.65;;;4.45;;
63114;SDS011;49208;50.874;6.466;2024-01-27T19:34:12;10.30;;;4.30;;
63114;SDS011;49208;50.874;6.466;2024-01-27T19:36:38;12.02;;;4.75;;
63114;SDS011;49208;50.874;6.466;2024-01-27T19:39:03;16.33;;;6.40;;
63114;SDS011;49208;50.874;6.466;2024-01-27T19:41:28;15.05;;;6.78;;
63114;SDS011;49208;50.874;6.466;2024-01-27T19:43:54;14.35;;;6.88;;
63114;SDS011;49208;50.874;6.466;2024-01-27T19:46:19;14.65;;;6.35;;
63114;SDS011;49208;50.874;6.466;2024-01-27T19:48:45;13.48;;;6.60;;
63114;SDS011;49208;50.874;6.466;2024-01-27T19:51:10;12.45;;;5.55;;
63114;SDS011;49208;50.874;6.466;2024-01-27T19:53:36;11.18;;;5.97;;
63114;SDS011;49208;50.874;6.466;2024-01-27T19:56:01;12.27;;;6.80;;
63114;SDS011;49208;50.874;6.466;2024-01-27T19:58:28;13.20;;;6.68;;
63114;SDS011;49208;50.874;6.466;2024-01-27T20:00:53;15.57;;;6.97;;
63114;SDS011;49208;50.874;6.466;2024-01-27T20:03:19;15.70;;;6.22;;
63114;SDS011;49208;50.874;6.466;2024-01-27T20:05:44;12.30;;;5.55;;
63114;SDS011;49208;50.874;6.466;2024-01-27T20:08:09;17.80;;;6.53;;
63114;SDS011;49208;50.874;6.466;2024-01-27T20:10:35;14.30;;;5.78;;
63114;SDS011;49208;50.874;6.466;2024-01-27T20:13:00;11.68;;;5.38;;
63114;SDS011;49208;50.874;6.466;2024-01-27T20:15:26;14.98;;;6.55;;
63114;SDS011;49208;50.874;6.466;2024-01-27T20:17:51;13.57;;;6.25;;
63114;SDS011;49208;50.874;6.466;2024-01-27T20:20:17;14.82;;;6.35;;
63114;SDS011;49208;50.874;6.466;2024-01-27T20:22:43;15.77;;;7.03;;
63114;SDS011;49208;50.874;6.466;2024-01-27T20:25:08;14.80;;;5.70;;
63114;SDS011;49208;50.874;6.466;2024-01-27T20:27:34;10.98;;;5.60;;
63114;SDS011;49208;50.874;6.466;2024-01-27T20:29:59;10.13;;;5.30;;
63114;SDS011;49208;50.874;6.466;2024-01-27T20:32:24;15.80;;;4.97;;
63114;SDS011;49208;50.874;6.466;2024-01-27T20:34:50;11.27;;;4.60;;
63114;SDS011;49208;50.874;6.466;2024-01-27T20:37:15;12.30;;;5.18;;
63114;SDS011;49208;50.874;6.466;2024-01-27T20:39:41;13.50;;;4.40;;
63114;SDS011;49208;50.874;6.466;2024-01-27T20:42:07;9.63;;;4.20;;
63114;SDS011;49208;50.874;6.466;2024-01-27T20:44:36;12.80;;;4.70;;
63114;SDS011;49208;50.874;6.466;2024-01-27T20:47:02;10.23;;;3.97;;
63114;SDS011;49208;50.874;6.466;2024-01-27T20:49:27;12.02;;;4.82;;
63114;SDS011;49208;50.874;6.466;2024-01-27T20:51:53;10.32;;;4.03;;
63114;SDS011;49208;50.874;6.466;2024-01-27T20:54:19;14.65;;;4.90;;
63114;SDS011;49208;50.874;6.466;2024-01-27T20:56:44;8.10;;;4.50;;
63114;SDS011;49208;50.874;6.466;2024-01-27T20:59:10;11.45;;;4.50;;
63114;SDS011;49208;50.874;6.466;2024-01-27T21:01:36;8.85;;;4.07;;
63114;SDS011;49208;50.874;6.466;2024-01-27T21:04:08;12.32;;;4.65;;
63114;SDS011;49208;50.874;6.466;2024-01-27T21:06:34;9.30;;;4.30;;
63114;SDS011;49208;50.874;6.466;2024-01-27T21:09:01;9.93;;;5.85;;
63114;SDS011;49208;50.874;6.466;2024-01-27T21:11:27;14.55;;;5.43;;
63114;SDS011;49208;50.874;6.466;2024-01-27T21:13:52;10.70;;;4.88;;
63114;SDS011;49208;50.874;6.466;2024-01-27T21:16:18;12.90;;;4.93;;
63114;SDS011;49208;50.874;6.466;2024-01-27T21:18:44;9.13;;;4.65;;
63114;SDS011;49208;50.874;6.466;2024-01-27T21:21:09;10.80;;;4.05;;
63114;SDS011;49208;50.874;6.466;2024-01-27T21:23:34;10.63;;;4.43;;
63114;SDS011;49208;50.874;6.466;2024-01-27T21:26:00;10.50;;;3.78;;
63114;SDS011;49208;50.874;6.466;2024-01-27T21:28:25;8.40;;;3.83;;
63114;SDS011;49208;50.874;6.466;2024-01-27T21:30:50;8.88;;;4.03;;
63114;SDS011;49208;50.874;6.466;2024-01-27T21:33:16;8.23;;;4.10;;
63114;SDS011;49208;50.874;6.466;2024-01-27T21:35:42;7.72;;;3.53;;
63114;SDS011;49208;50.874;6.466;2024-01-27T21:38:08;10.32;;;3.53;;
63114;SDS011;49208;50.874;6.466;2024-01-27T21:40:33;7.65;;;3.72;;
63114;SDS011;49208;50.874;6.466;2024-01-27T21:43:01;10.88;;;4.15;;
63114;SDS011;49208;50.874;6.466;2024-01-27T21:45:27;7.13;;;3.97;;